sensor_id;sensor_type;location;lat;lon;timestamp;P1;durP1;ratioP1;P2;durP2;ratioP2
3054;SDS011;1537;52.018;8.542;2023-02-18T00:03:23;18.93;;;6.33;;
3054;SDS011;1537;52.018;8.542;2023-02-18T00:06:46;11.37;;;5.40;;
3054;SDS011;1537;52.018;8.542;2023-02-18T00:10:11;12.13;;;6.20;;
3054;SDS011;1537;52.018;8.542;2023-02-18T00:13:36;13.83;;;6.90;;
3054;SDS011;1537;52.018;8.542;2023-02-18T00:17:00;11.87;;;7.13;;
3054;SDS011;1537;52.018;8.542;2023-02-18T00:20:25;12.20;;;6.20;;
3054;SDS011;1537;52.018;8.542;2023-02-18T00:23:49;10.33;;;6.30;;
3054;SDS011;1537;52.018;8.542;2023-02-18T00:27:13;13.80;;;7.87;;
3054;SDS011;1537;52.018;8.542;2023-02-18T00:30:38;14.03;;;6.40;;
3054;SDS011;1537;52.018;8.542;2023-02-18T00:34:03;17.03;;;7.50;;
3054;SDS011;1537;52.018;8.542;2023-02-18T00:37:29;18.30;;;7.97;;
3054;SDS011;1537;52.018;8.542;2023-02-18T00:40:56;13.40;;;7.90;;
3054;SDS011;1537;52.018;8.542;2023-02-18T00:44:19;18.80;;;8.47;;
3054;SDS011;1537;52.018;8.542;2023-02-18T00:47:43;20.00;;;9.87;;
3054;SDS011;1537;52.018;8.542;2023-02-18T00:51:07;16.83;;;9.63;;
3054;SDS011;1537;52.018;8.542;2023-02-18T00:54:33;17.23;;;9.17;;
3054;SDS011;1537;52.018;8.542;2023-02-18T00:57:56;19.23;;;9.20;;
3054;SDS011;1537;52.018;8.542;2023-02-18T01:01:20;17.37;;;11.07;;
3054;SDS011;1537;52.018;8.542;2023-02-18T01:04:44;15.20;;;10.17;;
3054;SDS011;1537;52.018;8.542;2023-02-18T01:08:08;21.53;;;11.90;;
3054;SDS011;1537;52.018;8.542;2023-02-18T01:11:33;26.10;;;11.70;;
3054;SDS011;1537;52.018;8.542;2023-02-18T01:14:57;20.63;;;11.47;;
3054;SDS011;1537;52.018;8.542;2023-02-18T01:18:21;21.37;;;12.07;;
3054;SDS011;1537;52.018;8.542;2023-02-18T01:21:46;24.53;;;13.50;;
3054;SDS011;1537;52.018;8.542;2023-02-18T01:25:10;26.77;;;14.17;;
3054;SDS011;1537;52.018;8.542;2023-02-18T01:28:35;29.47;;;14.80;;
3054;SDS011;1537;52.018;8.542;2023-02-18T01:32:00;29.40;;;14.33;;
3054;SDS011;1537;52.018;8.542;2023-02-18T01:35:24;35.50;;;15.77;;
3054;SDS011;1537;52.018;8.542;2023-02-18T01:38:49;25.87;;;15.50;;
3054;SDS011;1537;52.018;8.542;2023-02-18T01:42:17;24.87;;;15.43;;
3054;SDS011;1537;52.018;8.542;2023-02-18T01:45:56;28.63;;;16.80;;
3054;SDS011;1537;52.018;8.542;2023-02-18T01:49:25;31.80;;;19.13;;
3054;SDS011;1537;52.018;8.542;2023-02-18T01:52:50;32.83;;;17.03;;
3054;SDS011;1537;52.018;8.542;2023-02-18T01:56:15;32.80;;;18.90;;
3054;SDS011;1537;52.018;8.542;2023-02-18T01:59:46;31.90;;;17.80;;
3054;SDS011;1537;52.018;8.542;2023-02-18T02:03:15;28.50;;;16.67;;
3054;SDS011;1537;52.018;8.542;2023-02-18T02:06:39;30.73;;;20.30;;
3054;SDS011;1537;52.018;8.542;2023-02-18T02:10:02;33.57;;;19.43;;
3054;SDS011;1537;52.018;8.542;2023-02-18T02:13:30;39.30;;;19.60;;
3054;SDS011;1537;52.018;8.542;2023-02-18T02:17:06;29.57;;;18.17;;
3054;SDS011;1537;52.018;8.542;2023-02-18T02:20:45;29.60;;;19.43;;
3054;SDS011;1537;52.018;8.542;2023-02-18T02:24:39;29.37;;;18.90;;
3054;SDS011;1537;52.018;8.542;2023-02-18T02:36:37;31.07;;;18.53;;
3054;SDS011;1537;52.018;8.542;2023-02-18T02:40:12;35.40;;;20.90;;
3054;SDS011;1537;52.018;8.542;2023-02-18T02:43:46;32.07;;;20.37;;
3054;SDS011;1537;52.018;8.542;2023-02-18T02:47:18;42.17;;;23.70;;
3054;SDS011;1537;52.018;8.542;2023-02-18T02:50:50;32.40;;;19.97;;
3054;SDS011;1537;52.018;8.542;2023-02-18T02:54:18;38.33;;;20.40;;
3054;SDS011;1537;52.018;8.542;2023-02-18T02:57:48;32.30;;;22.07;;
3054;SDS011;1537;52.018;8.542;2023-02-18T03:01:19;34.63;;;21.57;;
3054;SDS011;1537;52.018;8.542;2023-02-18T03:04:54;36.60;;;21.43;;
3054;SDS011;1537;52.018;8.542;2023-02-18T03:08:29;41.40;;;24.00;;
3054;SDS011;1537;52.018;8.542;2023-02-18T03:12:05;37.30;;;22.57;;
3054;SDS011;1537;52.018;8.542;2023-02-18T03:15:36;36.20;;;24.00;;
3054;SDS011;1537;52.018;8.542;2023-02-18T03:19:07;36.50;;;23.60;;
3054;SDS011;1537;52.018;8.542;2023-02-18T03:22:36;34.00;;;22.37;;
3054;SDS011;1537;52.018;8.542;2023-02-18T03:26:02;35.90;;;22.27;;
3054;SDS011;1537;52.018;8.542;2023-02-18T03:29:29;38.00;;;22.20;;
3054;SDS011;1537;52.018;8.542;2023-02-18T03:32:54;39.77;;;22.43;;
3054;SDS011;1537;52.018;8.542;2023-02-18T03:36:21;36.93;;;22.60;;
3054;SDS011;1537;52.018;8.542;2023-02-18T03:39:47;39.43;;;21.83;;
3054;SDS011;1537;52.018;8.542;2023-02-18T03:43:14;35.97;;;22.87;;
3054;SDS011;1537;52.018;8.542;2023-02-18T03:46:40;34.53;;;21.17;;
3054;SDS011;1537;52.018;8.542;2023-02-18T03:50:06;29.50;;;19.80;;
3054;SDS011;1537;52.018;8.542;2023-02-18T03:53:30;29.30;;;19.43;;
3054;SDS011;1537;52.018;8.542;2023-02-18T03:56:54;29.60;;;19.53;;
3054;SDS011;1537;52.018;8.542;2023-02-18T04:00:18;29.50;;;15.70;;
3054;SDS011;1537;52.018;8.542;2023-02-18T04:03:44;27.67;;;16.90;;
3054;SDS011;1537;52.018;8.542;2023-02-18T04:07:07;27.40;;;16.17;;
3054;SDS011;1537;52.018;8.542;2023-02-18T04:10:31;26.00;;;13.50;;
3054;SDS011;1537;52.018;8.542;2023-02-18T04:13:54;23.37;;;13.53;;
3054;SDS011;1537;52.018;8.542;2023-02-18T04:17:18;24.23;;;13.87;;
3054;SDS011;1537;52.018;8.542;2023-02-18T04:20:44;19.80;;;13.07;;
3054;SDS011;1537;52.018;8.542;2023-02-18T04:24:08;18.90;;;12.13;;
3054;SDS011;1537;52.018;8.542;2023-02-18T04:27:32;16.27;;;11.17;;
3054;SDS011;1537;52.018;8.542;2023-02-18T04:30:56;22.07;;;13.80;;
3054;SDS011;1537;52.018;8.542;2023-02-18T04:34:20;22.50;;;13.30;;
3054;SDS011;1537;52.018;8.542;2023-02-18T04:37:46;19.53;;;11.80;;
3054;SDS011;1537;52.018;8.542;2023-02-18T04:41:09;20.20;;;14.07;;
3054;SDS011;1537;52.018;8.542;2023-02-18T04:44:34;22.97;;;15.07;;
3054;SDS011;1537;52.018;8.542;2023-02-18T04:47:58;27.07;;;17.00;;
3054;SDS011;1537;52.018;8.542;2023-02-18T04:51:22;29.70;;;18.37;;
3054;SDS011;1537;52.018;8.542;2023-02-18T04:54:48;30.27;;;18.50;;
3054;SDS011;1537;52.018;8.542;2023-02-18T04:58:14;32.07;;;18.77;;
3054;SDS011;1537;52.018;8.542;2023-02-18T05:01:38;34.60;;;21.53;;
3054;SDS011;1537;52.018;8.542;2023-02-18T05:05:02;34.43;;;22.97;;
3054;SDS011;1537;52.018;8.542;2023-02-18T05:08:27;33.60;;;21.90;;
3054;SDS011;1537;52.018;8.542;2023-02-18T05:11:54;37.27;;;21.00;;
3054;SDS011;1537;52.018;8.542;2023-02-18T05:15:19;37.93;;;21.47;;
3054;SDS011;1537;52.018;8.542;2023-02-18T05:18:43;35.80;;;21.63;;
3054;SDS011;1537;52.018;8.542;2023-02-18T05:22:07;38.00;;;23.90;;
3054;SDS011;1537;52.018;8.542;2023-02-18T05:25:31;36.77;;;21.57;;
3054;SDS011;1537;52.018;8.542;2023-02-18T05:28:56;33.97;;;21.27;;
3054;SDS011;1537;52.018;8.542;2023-02-18T05:32:20;35.53;;;20.13;;
3054;SDS011;1537;52.018;8.542;2023-02-18T05:35:44;37.20;;;22.60;;
3054;SDS011;1537;52.018;8.542;2023-02-18T05:39:08;29.47;;;17.30;;
3054;SDS011;1537;52.018;8.542;2023-02-18T05:42:31;31.87;;;16.10;;
3054;SDS011;1537;52.018;8.542;2023-02-18T05:45:57;34.63;;;19.40;;
3054;SDS011;1537;52.018;8.542;2023-02-18T05:49:20;32.00;;;19.47;;
3054;SDS011;1537;52.018;8.542;2023-02-18T05:52:44;36.37;;;21.30;;
3054;SDS011;1537;52.018;8.542;2023-02-18T05:56:08;38.47;;;22.00;;
3054;SDS011;1537;52.018;8.542;2023-02-18T05:59:32;37.67;;;22.30;;
3054;SDS011;1537;52.018;8.542;2023-02-18T06:02:57;35.80;;;21.00;;
3054;SDS011;1537;52.018;8.542;2023-02-18T06:06:23;35.57;;;20.80;;
3054;SDS011;1537;52.018;8.542;2023-02-18T06:09:48;31.10;;;18.67;;
3054;SDS011;1537;52.018;8.542;2023-02-18T06:13:12;30.27;;;19.73;;
3054;SDS011;1537;52.018;8.542;2023-02-18T06:16:35;30.70;;;18.03;;
3054;SDS011;1537;52.018;8.542;2023-02-18T06:20:00;37.33;;;18.17;;
3054;SDS011;1537;52.018;8.542;2023-02-18T06:23:24;30.80;;;18.47;;
3054;SDS011;1537;52.018;8.542;2023-02-18T06:26:49;32.00;;;19.10;;
3054;SDS011;1537;52.018;8.542;2023-02-18T06:30:13;29.33;;;15.37;;
3054;SDS011;1537;52.018;8.542;2023-02-18T06:33:37;22.50;;;13.57;;
3054;SDS011;1537;52.018;8.542;2023-02-18T06:37:02;21.57;;;12.30;;
3054;SDS011;1537;52.018;8.542;2023-02-18T06:40:26;23.13;;;13.03;;
3054;SDS011;1537;52.018;8.542;2023-02-18T06:43:50;18.67;;;10.00;;
3054;SDS011;1537;52.018;8.542;2023-02-18T06:47:14;19.97;;;11.17;;
3054;SDS011;1537;52.018;8.542;2023-02-18T06:50:39;18.47;;;11.40;;
3054;SDS011;1537;52.018;8.542;2023-02-18T06:54:05;14.20;;;9.67;;
3054;SDS011;1537;52.018;8.542;2023-02-18T06:57:29;14.07;;;9.13;;
3054;SDS011;1537;52.018;8.542;2023-02-18T07:00:52;17.53;;;9.03;;
3054;SDS011;1537;52.018;8.542;2023-02-18T07:04:17;11.00;;;7.10;;
3054;SDS011;1537;52.018;8.542;2023-02-18T07:07:40;14.03;;;8.00;;
3054;SDS011;1537;52.018;8.542;2023-02-18T07:11:06;11.60;;;6.73;;
3054;SDS011;1537;52.018;8.542;2023-02-18T07:14:30;9.30;;;5.60;;
3054;SDS011;1537;52.018;8.542;2023-02-18T07:17:55;13.07;;;6.23;;
3054;SDS011;1537;52.018;8.542;2023-02-18T07:21:18;13.00;;;7.60;;
3054;SDS011;1537;52.018;8.542;2023-02-18T07:24:42;10.87;;;6.77;;
3054;SDS011;1537;52.018;8.542;2023-02-18T07:28:07;11.57;;;7.27;;
3054;SDS011;1537;52.018;8.542;2023-02-18T07:31:30;10.20;;;6.27;;
3054;SDS011;1537;52.018;8.542;2023-02-18T07:34:54;11.50;;;7.70;;
3054;SDS011;1537;52.018;8.542;2023-02-18T07:38:17;11.67;;;8.00;;
3054;SDS011;1537;52.018;8.542;2023-02-18T07:41:41;10.53;;;6.93;;
3054;SDS011;1537;52.018;8.542;2023-02-18T07:45:11;8.60;;;6.50;;
3054;SDS011;1537;52.018;8.542;2023-02-18T07:48:35;12.17;;;8.73;;
3054;SDS011;1537;52.018;8.542;2023-02-18T07:51:58;9.27;;;6.27;;
3054;SDS011;1537;52.018;8.542;2023-02-18T07:55:24;9.10;;;6.30;;
3054;SDS011;1537;52.018;8.542;2023-02-18T07:59:07;9.67;;;6.53;;
3054;SDS011;1537;52.018;8.542;2023-02-18T08:02:33;9.57;;;6.13;;
3054;SDS011;1537;52.018;8.542;2023-02-18T08:05:57;10.63;;;5.87;;
3054;SDS011;1537;52.018;8.542;2023-02-18T08:09:21;7.93;;;4.97;;
3054;SDS011;1537;52.018;8.542;2023-02-18T08:12:46;8.93;;;6.50;;
3054;SDS011;1537;52.018;8.542;2023-02-18T08:16:09;9.87;;;6.33;;
3054;SDS011;1537;52.018;8.542;2023-02-18T08:19:35;8.33;;;5.80;;
3054;SDS011;1537;52.018;8.542;2023-02-18T08:23:01;9.37;;;7.00;;
3054;SDS011;1537;52.018;8.542;2023-02-18T08:26:27;10.13;;;7.80;;
3054;SDS011;1537;52.018;8.542;2023-02-18T08:29:51;10.33;;;7.60;;
3054;SDS011;1537;52.018;8.542;2023-02-18T08:33:15;9.80;;;6.17;;
3054;SDS011;1537;52.018;8.542;2023-02-18T08:36:41;11.13;;;8.10;;
3054;SDS011;1537;52.018;8.542;2023-02-18T08:40:05;9.03;;;6.80;;
3054;SDS011;1537;52.018;8.542;2023-02-18T08:43:30;7.73;;;4.70;;
3054;SDS011;1537;52.018;8.542;2023-02-18T08:46:56;8.00;;;5.90;;
3054;SDS011;1537;52.018;8.542;2023-02-18T08:50:20;8.00;;;5.17;;
3054;SDS011;1537;52.018;8.542;2023-02-18T08:53:51;6.97;;;4.60;;
3054;SDS011;1537;52.018;8.542;2023-02-18T08:57:15;8.83;;;5.67;;
3054;SDS011;1537;52.018;8.542;2023-02-18T09:00:39;7.73;;;5.17;;
3054;SDS011;1537;52.018;8.542;2023-02-18T09:04:04;7.70;;;4.63;;
3054;SDS011;1537;52.018;8.542;2023-02-18T09:07:30;7.20;;;4.60;;
3054;SDS011;1537;52.018;8.542;2023-02-18T09:10:59;8.30;;;5.00;;
3054;SDS011;1537;52.018;8.542;2023-02-18T09:14:25;6.50;;;5.10;;
3054;SDS011;1537;52.018;8.542;2023-02-18T09:17:49;8.17;;;5.17;;
3054;SDS011;1537;52.018;8.542;2023-02-18T09:21:13;7.80;;;4.63;;
3054;SDS011;1537;52.018;8.542;2023-02-18T09:24:38;7.30;;;4.90;;
3054;SDS011;1537;52.018;8.542;2023-02-18T09:28:04;7.40;;;4.70;;
3054;SDS011;1537;52.018;8.542;2023-02-18T09:31:28;10.33;;;6.13;;
3054;SDS011;1537;52.018;8.542;2023-02-18T09:34:51;8.37;;;5.10;;
3054;SDS011;1537;52.018;8.542;2023-02-18T09:38:16;7.00;;;4.70;;
3054;SDS011;1537;52.018;8.542;2023-02-18T09:41:40;8.60;;;5.70;;
3054;SDS011;1537;52.018;8.542;2023-02-18T09:45:10;7.03;;;4.43;;
3054;SDS011;1537;52.018;8.542;2023-02-18T09:48:47;8.77;;;5.80;;
3054;SDS011;1537;52.018;8.542;2023-02-18T09:52:11;7.97;;;4.97;;
3054;SDS011;1537;52.018;8.542;2023-02-18T09:55:38;7.33;;;5.20;;
3054;SDS011;1537;52.018;8.542;2023-02-18T09:59:04;9.30;;;6.27;;
3054;SDS011;1537;52.018;8.542;2023-02-18T10:02:34;8.30;;;5.60;;
3054;SDS011;1537;52.018;8.542;2023-02-18T10:06:01;11.33;;;7.90;;
3054;SDS011;1537;52.018;8.542;2023-02-18T10:09:28;11.13;;;8.43;;
3054;SDS011;1537;52.018;8.542;2023-02-18T10:12:55;12.63;;;9.13;;
3054;SDS011;1537;52.018;8.542;2023-02-18T10:16:20;12.60;;;9.60;;
3054;SDS011;1537;52.018;8.542;2023-02-18T10:19:47;13.07;;;9.30;;
3054;SDS011;1537;52.018;8.542;2023-02-18T10:23:13;11.17;;;8.53;;
3054;SDS011;1537;52.018;8.542;2023-02-18T10:26:38;10.80;;;7.77;;
3054;SDS011;1537;52.018;8.542;2023-02-18T10:30:08;10.47;;;8.47;;
3054;SDS011;1537;52.018;8.542;2023-02-18T10:33:45;11.87;;;6.90;;
3054;SDS011;1537;52.018;8.542;2023-02-18T10:37:25;8.13;;;5.90;;
3054;SDS011;1537;52.018;8.542;2023-02-18T10:41:03;6.90;;;4.60;;
3054;SDS011;1537;52.018;8.542;2023-02-18T10:44:34;12.40;;;5.53;;
3054;SDS011;1537;52.018;8.542;2023-02-18T10:48:10;6.13;;;3.60;;
3054;SDS011;1537;52.018;8.542;2023-02-18T10:51:46;7.83;;;4.97;;
3054;SDS011;1537;52.018;8.542;2023-02-18T10:55:15;8.43;;;4.57;;
3054;SDS011;1537;52.018;8.542;2023-02-18T10:58:41;9.20;;;4.90;;
3054;SDS011;1537;52.018;8.542;2023-02-18T11:02:12;9.70;;;4.83;;
3054;SDS011;1537;52.018;8.542;2023-02-18T11:05:39;12.13;;;5.80;;
3054;SDS011;1537;52.018;8.542;2023-02-18T11:09:03;6.67;;;4.23;;
3054;SDS011;1537;52.018;8.542;2023-02-18T11:12:30;9.17;;;5.70;;
3054;SDS011;1537;52.018;8.542;2023-02-18T11:16:03;9.47;;;6.23;;
3054;SDS011;1537;52.018;8.542;2023-02-18T11:19:30;8.60;;;5.63;;
3054;SDS011;1537;52.018;8.542;2023-02-18T11:22:56;10.27;;;6.40;;
3054;SDS011;1537;52.018;8.542;2023-02-18T11:26:34;9.87;;;6.17;;
3054;SDS011;1537;52.018;8.542;2023-02-18T11:30:03;11.50;;;7.00;;
3054;SDS011;1537;52.018;8.542;2023-02-18T11:33:31;10.27;;;6.80;;
3054;SDS011;1537;52.018;8.542;2023-02-18T11:37:06;9.20;;;4.60;;
3054;SDS011;1537;52.018;8.542;2023-02-18T11:40:34;16.13;;;5.40;;
3054;SDS011;1537;52.018;8.542;2023-02-18T11:43:59;11.20;;;6.20;;
3054;SDS011;1537;52.018;8.542;2023-02-18T11:47:27;8.20;;;5.43;;
3054;SDS011;1537;52.018;8.542;2023-02-18T11:50:55;9.73;;;4.50;;
3054;SDS011;1537;52.018;8.542;2023-02-18T11:54:27;7.23;;;4.30;;
3054;SDS011;1537;52.018;8.542;2023-02-18T11:57:54;10.73;;;4.90;;
3054;SDS011;1537;52.018;8.542;2023-02-18T12:01:20;7.40;;;5.27;;
3054;SDS011;1537;52.018;8.542;2023-02-18T12:04:59;12.17;;;5.40;;
3054;SDS011;1537;52.018;8.542;2023-02-18T12:08:27;9.67;;;5.40;;
3054;SDS011;1537;52.018;8.542;2023-02-18T12:11:54;8.60;;;4.00;;
3054;SDS011;1537;52.018;8.542;2023-02-18T12:15:23;7.87;;;4.57;;
3054;SDS011;1537;52.018;8.542;2023-02-18T12:18:55;10.70;;;4.70;;
3054;SDS011;1537;52.018;8.542;2023-02-18T12:22:41;8.90;;;4.63;;
3054;SDS011;1537;52.018;8.542;2023-02-18T12:26:11;8.63;;;4.20;;
3054;SDS011;1537;52.018;8.542;2023-02-18T12:29:51;7.93;;;4.47;;
3054;SDS011;1537;52.018;8.542;2023-02-18T12:33:47;6.30;;;3.67;;
3054;SDS011;1537;52.018;8.542;2023-02-18T12:37:36;7.90;;;5.40;;
3054;SDS011;1537;52.018;8.542;2023-02-18T12:41:28;8.10;;;4.50;;
3054;SDS011;1537;52.018;8.542;2023-02-18T12:45:26;9.20;;;4.20;;
3054;SDS011;1537;52.018;8.542;2023-02-18T12:53:04;7.70;;;4.70;;
3054;SDS011;1537;52.018;8.542;2023-02-18T12:56:49;5.80;;;2.93;;
3054;SDS011;1537;52.018;8.542;2023-02-18T13:04:24;8.57;;;4.60;;
3054;SDS011;1537;52.018;8.542;2023-02-18T13:08:02;9.70;;;5.33;;
3054;SDS011;1537;52.018;8.542;2023-02-18T13:11:45;9.57;;;6.27;;
3054;SDS011;1537;52.018;8.542;2023-02-18T13:15:18;7.83;;;4.67;;
3054;SDS011;1537;52.018;8.542;2023-02-18T13:18:46;7.73;;;5.13;;
3054;SDS011;1537;52.018;8.542;2023-02-18T13:22:23;10.63;;;5.23;;
3054;SDS011;1537;52.018;8.542;2023-02-18T13:25:52;9.77;;;5.07;;
3054;SDS011;1537;52.018;8.542;2023-02-18T13:29:27;7.87;;;4.83;;
3054;SDS011;1537;52.018;8.542;2023-02-18T13:33:02;9.20;;;5.17;;
3054;SDS011;1537;52.018;8.542;2023-02-18T13:36:39;9.23;;;5.20;;
3054;SDS011;1537;52.018;8.542;2023-02-18T13:40:13;9.20;;;4.73;;
3054;SDS011;1537;52.018;8.542;2023-02-18T13:43:40;9.30;;;4.60;;
3054;SDS011;1537;52.018;8.542;2023-02-18T13:47:09;9.80;;;5.77;;
3054;SDS011;1537;52.018;8.542;2023-02-18T13:50:38;10.13;;;6.03;;
3054;SDS011;1537;52.018;8.542;2023-02-18T13:54:11;8.00;;;5.30;;
3054;SDS011;1537;52.018;8.542;2023-02-18T13:57:41;9.23;;;5.17;;
3054;SDS011;1537;52.018;8.542;2023-02-18T14:01:05;10.10;;;6.00;;
3054;SDS011;1537;52.018;8.542;2023-02-18T14:04:50;9.17;;;5.63;;
3054;SDS011;1537;52.018;8.542;2023-02-18T14:08:28;9.37;;;6.63;;
3054;SDS011;1537;52.018;8.542;2023-02-18T14:12:15;9.87;;;6.90;;
3054;SDS011;1537;52.018;8.542;2023-02-18T14:16:13;14.03;;;7.10;;
3054;SDS011;1537;52.018;8.542;2023-02-18T14:19:37;16.03;;;7.07;;
3054;SDS011;1537;52.018;8.542;2023-02-18T14:23:02;9.90;;;5.60;;
3054;SDS011;1537;52.018;8.542;2023-02-18T14:26:35;13.57;;;6.47;;
3054;SDS011;1537;52.018;8.542;2023-02-18T14:30:02;9.83;;;5.77;;
3054;SDS011;1537;52.018;8.542;2023-02-18T14:33:29;13.33;;;6.93;;
3054;SDS011;1537;52.018;8.542;2023-02-18T14:36:56;9.63;;;4.97;;
3054;SDS011;1537;52.018;8.542;2023-02-18T14:44:35;12.60;;;7.33;;
3054;SDS011;1537;52.018;8.542;2023-02-18T14:48:16;10.03;;;6.10;;
3054;SDS011;1537;52.018;8.542;2023-02-18T14:51:51;9.47;;;5.60;;
3054;SDS011;1537;52.018;8.542;2023-02-18T14:55:21;9.20;;;5.90;;
3054;SDS011;1537;52.018;8.542;2023-02-18T14:58:50;12.07;;;6.13;;
3054;SDS011;1537;52.018;8.542;2023-02-18T15:02:19;11.70;;;6.17;;
3054;SDS011;1537;52.018;8.542;2023-02-18T15:05:44;12.43;;;6.30;;
3054;SDS011;1537;52.018;8.542;2023-02-18T15:09:13;12.13;;;6.13;;
3054;SDS011;1537;52.018;8.542;2023-02-18T15:12:37;9.20;;;5.47;;
3054;SDS011;1537;52.018;8.542;2023-02-18T15:16:03;8.90;;;5.10;;
3054;SDS011;1537;52.018;8.542;2023-02-18T15:19:31;10.17;;;5.10;;
3054;SDS011;1537;52.018;8.542;2023-02-18T15:23:01;9.07;;;6.30;;
3054;SDS011;1537;52.018;8.542;2023-02-18T15:26:25;8.07;;;5.30;;
3054;SDS011;1537;52.018;8.542;2023-02-18T15:29:49;9.20;;;5.03;;
3054;SDS011;1537;52.018;8.542;2023-02-18T15:33:14;13.83;;;5.77;;
3054;SDS011;1537;52.018;8.542;2023-02-18T15:36:40;9.00;;;5.43;;
3054;SDS011;1537;52.018;8.542;2023-02-18T15:40:10;8.60;;;5.23;;
3054;SDS011;1537;52.018;8.542;2023-02-18T15:43:36;15.03;;;5.90;;
3054;SDS011;1537;52.018;8.542;2023-02-18T15:47:00;8.73;;;5.23;;
3054;SDS011;1537;52.018;8.542;2023-02-18T15:50:27;11.40;;;5.90;;
3054;SDS011;1537;52.018;8.542;2023-02-18T15:53:54;12.80;;;7.50;;
3054;SDS011;1537;52.018;8.542;2023-02-18T15:57:21;10.33;;;4.93;;
3054;SDS011;1537;52.018;8.542;2023-02-18T16:00:49;9.03;;;5.90;;
3054;SDS011;1537;52.018;8.542;2023-02-18T16:04:14;16.40;;;6.33;;
3054;SDS011;1537;52.018;8.542;2023-02-18T16:07:48;10.97;;;7.17;;
3054;SDS011;1537;52.018;8.542;2023-02-18T16:11:13;9.73;;;6.37;;
3054;SDS011;1537;52.018;8.542;2023-02-18T16:14:38;10.30;;;6.17;;
3054;SDS011;1537;52.018;8.542;2023-02-18T16:18:17;9.50;;;5.70;;
3054;SDS011;1537;52.018;8.542;2023-02-18T16:21:44;9.63;;;5.70;;
3054;SDS011;1537;52.018;8.542;2023-02-18T16:25:13;8.33;;;4.80;;
3054;SDS011;1537;52.018;8.542;2023-02-18T16:28:40;11.33;;;5.53;;
3054;SDS011;1537;52.018;8.542;2023-02-18T16:32:05;8.63;;;4.80;;
3054;SDS011;1537;52.018;8.542;2023-02-18T16:35:29;12.97;;;5.90;;
3054;SDS011;1537;52.018;8.542;2023-02-18T16:39:10;8.00;;;4.30;;
3054;SDS011;1537;52.018;8.542;2023-02-18T16:42:36;14.20;;;5.97;;
3054;SDS011;1537;52.018;8.542;2023-02-18T16:46:07;8.60;;;5.57;;
3054;SDS011;1537;52.018;8.542;2023-02-18T16:49:43;10.33;;;6.10;;
3054;SDS011;1537;52.018;8.542;2023-02-18T16:53:11;12.73;;;6.43;;
3054;SDS011;1537;52.018;8.542;2023-02-18T16:56:36;8.30;;;5.03;;
3054;SDS011;1537;52.018;8.542;2023-02-18T17:00:02;8.27;;;5.40;;
3054;SDS011;1537;52.018;8.542;2023-02-18T17:03:26;15.00;;;6.70;;
3054;SDS011;1537;52.018;8.542;2023-02-18T17:06:49;12.63;;;7.07;;
3054;SDS011;1537;52.018;8.542;2023-02-18T17:10:14;12.80;;;7.40;;
3054;SDS011;1537;52.018;8.542;2023-02-18T17:13:38;18.27;;;12.77;;
3054;SDS011;1537;52.018;8.542;2023-02-18T17:17:08;10.80;;;6.87;;
3054;SDS011;1537;52.018;8.542;2023-02-18T17:20:34;11.70;;;7.23;;
3054;SDS011;1537;52.018;8.542;2023-02-18T17:23:58;11.73;;;8.03;;
3054;SDS011;1537;52.018;8.542;2023-02-18T17:27:23;14.73;;;7.20;;
3054;SDS011;1537;52.018;8.542;2023-02-18T17:30:47;13.77;;;6.93;;
3054;SDS011;1537;52.018;8.542;2023-02-18T17:34:17;11.37;;;7.70;;
3054;SDS011;1537;52.018;8.542;2023-02-18T17:37:46;16.20;;;9.30;;
3054;SDS011;1537;52.018;8.542;2023-02-18T17:41:10;14.67;;;7.60;;
3054;SDS011;1537;52.018;8.542;2023-02-18T17:44:35;15.30;;;7.50;;
3054;SDS011;1537;52.018;8.542;2023-02-18T17:47:59;13.67;;;6.77;;
3054;SDS011;1537;52.018;8.542;2023-02-18T17:51:26;18.20;;;6.87;;
3054;SDS011;1537;52.018;8.542;2023-02-18T17:54:50;12.33;;;6.93;;
3054;SDS011;1537;52.018;8.542;2023-02-18T17:58:14;12.63;;;7.50;;
3054;SDS011;1537;52.018;8.542;2023-02-18T18:01:38;14.33;;;7.07;;
3054;SDS011;1537;52.018;8.542;2023-02-18T18:05:03;14.47;;;7.23;;
3054;SDS011;1537;52.018;8.542;2023-02-18T18:08:28;12.13;;;8.07;;
3054;SDS011;1537;52.018;8.542;2023-02-18T18:11:52;14.10;;;7.00;;
3054;SDS011;1537;52.018;8.542;2023-02-18T18:15:21;9.83;;;5.80;;
3054;SDS011;1537;52.018;8.542;2023-02-18T18:18:47;14.97;;;6.23;;
3054;SDS011;1537;52.018;8.542;2023-02-18T18:22:11;16.67;;;8.10;;
3054;SDS011;1537;52.018;8.542;2023-02-18T18:25:36;14.83;;;6.80;;
3054;SDS011;1537;52.018;8.542;2023-02-18T18:29:02;16.00;;;6.70;;
3054;SDS011;1537;52.018;8.542;2023-02-18T18:32:25;13.77;;;6.43;;
3054;SDS011;1537;52.018;8.542;2023-02-18T18:35:50;19.97;;;10.43;;
3054;SDS011;1537;52.018;8.542;2023-02-18T18:39:14;33.70;;;16.20;;
3054;SDS011;1537;52.018;8.542;2023-02-18T18:42:39;11.30;;;6.40;;
3054;SDS011;1537;52.018;8.542;2023-02-18T18:46:03;13.00;;;6.33;;
3054;SDS011;1537;52.018;8.542;2023-02-18T18:49:27;29.53;;;7.80;;
3054;SDS011;1537;52.018;8.542;2023-02-18T18:52:51;16.33;;;8.03;;
3054;SDS011;1537;52.018;8.542;2023-02-18T18:56:15;13.73;;;6.33;;
3054;SDS011;1537;52.018;8.542;2023-02-18T18:59:40;14.13;;;7.47;;
3054;SDS011;1537;52.018;8.542;2023-02-18T19:03:04;12.07;;;6.67;;
3054;SDS011;1537;52.018;8.542;2023-02-18T19:06:28;10.00;;;6.87;;
3054;SDS011;1537;52.018;8.542;2023-02-18T19:09:52;16.07;;;7.23;;
3054;SDS011;1537;52.018;8.542;2023-02-18T19:13:16;15.63;;;9.20;;
3054;SDS011;1537;52.018;8.542;2023-02-18T19:16:42;28.17;;;16.10;;
3054;SDS011;1537;52.018;8.542;2023-02-18T19:20:06;13.90;;;8.77;;
3054;SDS011;1537;52.018;8.542;2023-02-18T19:23:34;15.87;;;8.20;;
3054;SDS011;1537;52.018;8.542;2023-02-18T19:26:58;22.23;;;9.10;;
3054;SDS011;1537;52.018;8.542;2023-02-18T19:30:22;16.50;;;8.17;;
3054;SDS011;1537;52.018;8.542;2023-02-18T19:33:48;13.03;;;8.30;;
3054;SDS011;1537;52.018;8.542;2023-02-18T19:37:12;12.23;;;8.00;;
3054;SDS011;1537;52.018;8.542;2023-02-18T19:40:36;16.53;;;8.73;;
3054;SDS011;1537;52.018;8.542;2023-02-18T19:44:00;25.00;;;9.80;;
3054;SDS011;1537;52.018;8.542;2023-02-18T19:47:24;14.73;;;8.40;;
3054;SDS011;1537;52.018;8.542;2023-02-18T19:50:50;14.63;;;9.33;;
3054;SDS011;1537;52.018;8.542;2023-02-18T19:54:15;14.60;;;8.23;;
3054;SDS011;1537;52.018;8.542;2023-02-18T19:57:39;14.73;;;9.80;;
3054;SDS011;1537;52.018;8.542;2023-02-18T20:01:02;26.33;;;10.47;;
3054;SDS011;1537;52.018;8.542;2023-02-18T20:04:26;19.23;;;10.70;;
3054;SDS011;1537;52.018;8.542;2023-02-18T20:07:52;24.10;;;10.23;;
3054;SDS011;1537;52.018;8.542;2023-02-18T20:11:16;16.33;;;9.50;;
3054;SDS011;1537;52.018;8.542;2023-02-18T20:14:40;31.40;;;11.60;;
3054;SDS011;1537;52.018;8.542;2023-02-18T20:18:05;18.57;;;8.97;;
3054;SDS011;1537;52.018;8.542;2023-02-18T20:21:28;17.77;;;9.63;;
3054;SDS011;1537;52.018;8.542;2023-02-18T20:24:54;20.37;;;11.13;;
3054;SDS011;1537;52.018;8.542;2023-02-18T20:28:18;14.20;;;8.20;;
3054;SDS011;1537;52.018;8.542;2023-02-18T20:31:41;16.40;;;8.37;;
3054;SDS011;1537;52.018;8.542;2023-02-18T20:35:05;14.80;;;8.57;;
3054;SDS011;1537;52.018;8.542;2023-02-18T20:38:29;19.97;;;9.13;;
3054;SDS011;1537;52.018;8.542;2023-02-18T20:41:55;16.23;;;8.40;;
3054;SDS011;1537;52.018;8.542;2023-02-18T20:45:23;13.97;;;9.60;;
3054;SDS011;1537;52.018;8.542;2023-02-18T20:48:47;14.73;;;9.30;;
3054;SDS011;1537;52.018;8.542;2023-02-18T20:52:11;20.27;;;8.87;;
3054;SDS011;1537;52.018;8.542;2023-02-18T20:55:35;19.27;;;8.23;;
3054;SDS011;1537;52.018;8.542;2023-02-18T20:59:00;13.67;;;7.60;;
3054;SDS011;1537;52.018;8.542;2023-02-18T21:02:24;15.73;;;9.40;;
3054;SDS011;1537;52.018;8.542;2023-02-18T21:05:53;15.83;;;9.70;;
3054;SDS011;1537;52.018;8.542;2023-02-18T21:09:17;14.93;;;9.40;;
3054;SDS011;1537;52.018;8.542;2023-02-18T21:12:42;15.10;;;9.87;;
3054;SDS011;1537;52.018;8.542;2023-02-18T21:16:08;17.53;;;10.73;;
3054;SDS011;1537;52.018;8.542;2023-02-18T21:19:32;20.40;;;10.90;;
3054;SDS011;1537;52.018;8.542;2023-02-18T21:22:56;19.60;;;12.23;;
3054;SDS011;1537;52.018;8.542;2023-02-18T21:26:21;21.70;;;11.60;;
3054;SDS011;1537;52.018;8.542;2023-02-18T21:29:46;20.60;;;12.40;;